logo
Search for airport 
image banner adimage banner adimage banner ad
image banner ad

SWUL - Fazenda Furna Azul

Located in Ananás, Brazil

ICAO - SWUL, IATA -

Data provided by Airmate  

General information

Coordinates: S6°12'57" W48°25'33"
Elevation is 387 feet MSL.
Magnetic variation is -20° East
View others Airports in Tocatins

Operational data

Special qualification required
Current time UTC:
Current local time:
Weather at : - ( 0 km )
METAR: KQFX 140510Z AUTO 16003G12KT 9999 CLR 29/06 A2997 RMK A02 TSNO
View NOTAMs / SUP AIP / TFR affecting this airport [VIEW]
Communications frequencies: [VIEW]

Runways:

RWY identifierQFULength (ft)Width (ft)SurfaceLDA (ft)
16328182GRAVEL
34328182GRAVEL

Airport contact information

Address: Ananás Brazil

Satellite view of SWUL